createdAt,value
2023-01-29T00:02:04.372Z,32.25
2023-01-29T00:04:31.885Z,35.47
2023-01-29T00:06:59.833Z,33.90
2023-01-29T00:09:27.353Z,35.03
2023-01-29T00:11:54.826Z,31.02
2023-01-29T00:14:22.508Z,34.92
2023-01-29T00:16:50.054Z,35.83
2023-01-29T00:19:19.457Z,33.65
2023-01-29T00:21:47.183Z,26.73
2023-01-29T00:24:14.746Z,28.30
2023-01-29T00:26:43.019Z,34.20
2023-01-29T00:29:10.602Z,32.20
2023-01-29T00:31:38.335Z,34.17
2023-01-29T00:34:05.833Z,33.17
2023-01-29T00:36:34.658Z,30.98
2023-01-29T00:39:10.403Z,33.15
2023-01-29T00:41:56.220Z,33.97
2023-01-29T00:44:41.442Z,32.03
2023-01-29T00:47:29.864Z,28.37
2023-01-29T00:49:58.022Z,29.15
2023-01-29T00:52:27.000Z,34.70
2023-01-29T00:54:56.058Z,29.52
2023-01-29T00:57:23.924Z,31.50
2023-01-29T00:59:51.985Z,28.87
2023-01-29T01:02:37.255Z,24.05
2023-01-29T01:05:06.028Z,28.55
2023-01-29T01:07:35.270Z,22.15
2023-01-29T01:10:20.325Z,31.00
2023-01-29T01:12:48.233Z,20.03
2023-01-29T01:15:15.714Z,23.35
2023-01-29T01:17:43.207Z,25.23
2023-01-29T01:20:11.922Z,15.18
2023-01-29T01:22:40.750Z,23.65
2023-01-29T01:25:08.900Z,27.20
2023-01-29T01:27:40.817Z,23.42
2023-01-29T01:30:11.963Z,21.00
2023-01-29T01:32:40.071Z,27.35
2023-01-29T01:35:09.173Z,24.08
2023-01-29T01:37:38.577Z,27.80
2023-01-29T01:40:12.823Z,32.45
2023-01-29T01:42:40.845Z,22.02
2023-01-29T01:45:10.239Z,39.03
2023-01-29T01:47:42.738Z,33.92
2023-01-29T01:50:15.055Z,29.13
2023-01-29T01:52:48.251Z,25.10
2023-01-29T01:55:20.098Z,34.00
2023-01-29T01:57:52.018Z,28.42
2023-01-29T02:00:22.700Z,23.90
2023-01-29T02:03:07.759Z,31.43
2023-01-29T02:05:54.414Z,31.42
2023-01-29T02:08:48.580Z,38.88
2023-01-29T02:11:18.692Z,35.22
2023-01-29T02:13:46.357Z,34.63
2023-01-29T02:16:13.922Z,29.53
2023-01-29T02:18:41.830Z,31.77
2023-01-29T02:21:25.317Z,28.95
2023-01-29T02:24:19.607Z,25.27
2023-01-29T02:26:56.582Z,23.00
2023-01-29T02:29:35.343Z,29.20
2023-01-29T02:32:15.208Z,35.28
2023-01-29T02:35:11.054Z,18.73
2023-01-29T02:37:44.962Z,40.78
2023-01-29T02:40:20.989Z,32.85
2023-01-29T02:42:54.494Z,16.50
2023-01-29T02:45:33.691Z,33.28
2023-01-29T02:48:02.728Z,31.63
2023-01-29T02:50:35.629Z,37.47
2023-01-29T02:53:09.119Z,37.03
2023-01-29T02:55:41.095Z,36.10
2023-01-29T02:58:13.714Z,25.55
2023-01-29T03:00:46.066Z,34.45
2023-01-29T03:03:17.432Z,27.50
2023-01-29T03:05:54.952Z,21.92
2023-01-29T03:08:36.991Z,30.23
2023-01-29T03:11:06.601Z,31.77
2023-01-29T03:13:42.144Z,27.63
2023-01-29T03:16:19.064Z,33.75
2023-01-29T03:18:51.077Z,35.42
2023-01-29T03:21:38.043Z,36.43
2023-01-29T03:24:25.001Z,28.80
2023-01-29T03:27:11.505Z,30.42
2023-01-29T03:29:59.376Z,31.83
2023-01-29T03:32:31.326Z,24.00
2023-01-29T03:35:04.065Z,36.27
2023-01-29T03:37:36.707Z,25.38
2023-01-29T03:40:05.571Z,18.20
2023-01-29T03:42:45.244Z,29.48
2023-01-29T03:45:19.216Z,32.38
2023-01-29T03:47:55.632Z,31.33
2023-01-29T03:50:35.275Z,31.60
2023-01-29T03:53:11.587Z,31.85
2023-01-29T03:55:44.270Z,33.25
2023-01-29T03:58:21.772Z,32.70
2023-01-29T04:00:57.488Z,33.53
2023-01-29T04:03:33.657Z,35.50
2023-01-29T04:06:10.546Z,27.65
2023-01-29T04:08:46.312Z,29.45
2023-01-29T04:11:17.257Z,22.63
2023-01-29T04:13:46.549Z,28.27
2023-01-29T04:16:19.160Z,23.20
2023-01-29T04:18:49.124Z,30.25
2023-01-29T04:21:18.092Z,28.38
2023-01-29T04:23:45.731Z,26.15
2023-01-29T04:26:39.104Z,19.87
2023-01-29T04:29:22.951Z,18.48
2023-01-29T04:32:01.359Z,29.25
2023-01-29T04:34:40.837Z,29.38
2023-01-29T04:37:16.905Z,27.52
2023-01-29T04:39:54.073Z,21.10
2023-01-29T04:42:30.976Z,25.38
2023-01-29T04:45:06.626Z,35.60
2023-01-29T04:47:43.019Z,28.05
2023-01-29T04:50:18.411Z,28.90
2023-01-29T04:52:53.573Z,18.87
2023-01-29T04:55:30.315Z,31.05
2023-01-29T04:58:05.701Z,30.42
2023-01-29T05:00:38.362Z,31.85
2023-01-29T05:03:09.621Z,22.75
2023-01-29T05:05:41.892Z,29.17
2023-01-29T05:08:13.217Z,16.88
2023-01-29T05:10:42.313Z,26.30
2023-01-29T05:13:14.627Z,30.67
2023-01-29T05:15:48.591Z,28.83
2023-01-29T05:18:16.495Z,29.87
2023-01-29T05:20:46.157Z,32.92
2023-01-29T05:23:17.654Z,33.08
2023-01-29T05:25:46.372Z,34.42
2023-01-29T05:28:16.417Z,30.92
2023-01-29T05:30:45.730Z,20.83
2023-01-29T05:33:15.700Z,32.22
2023-01-29T05:35:44.670Z,24.95
2023-01-29T05:38:12.304Z,24.92
2023-01-29T05:40:40.494Z,24.73
2023-01-29T05:43:15.866Z,17.10
2023-01-29T05:45:43.384Z,28.35
2023-01-29T05:48:10.843Z,37.55
2023-01-29T05:50:38.392Z,19.85
2023-01-29T05:53:07.230Z,36.30
2023-01-29T05:55:34.721Z,29.23
2023-01-29T05:58:04.165Z,23.70
2023-01-29T06:00:33.050Z,36.08
2023-01-29T06:03:01.359Z,32.45
2023-01-29T06:05:28.877Z,33.80
2023-01-29T06:07:56.372Z,30.03
2023-01-29T06:10:25.320Z,44.55
2023-01-29T06:12:52.842Z,16.98
2023-01-29T06:15:20.623Z,29.65
2023-01-29T06:17:48.076Z,29.85
2023-01-29T06:20:15.883Z,26.27
2023-01-29T06:22:43.571Z,21.83
2023-01-29T06:25:11.066Z,25.52
2023-01-29T06:27:39.893Z,31.55
2023-01-29T06:30:09.040Z,30.33
2023-01-29T06:32:36.712Z,31.23
2023-01-29T06:35:04.730Z,38.53
2023-01-29T06:37:32.193Z,22.05
2023-01-29T06:39:59.776Z,32.22
2023-01-29T06:42:28.079Z,38.60
2023-01-29T06:44:57.438Z,23.00
2023-01-29T06:47:25.434Z,22.90
2023-01-29T06:49:53.098Z,39.30
2023-01-29T06:52:20.728Z,27.77
2023-01-29T06:54:48.304Z,20.55
2023-01-29T06:57:15.774Z,37.43
2023-01-29T06:59:43.196Z,31.65
2023-01-29T07:02:12.154Z,27.73
2023-01-29T07:04:41.488Z,37.97
2023-01-29T07:07:13.035Z,36.75
2023-01-29T07:09:41.497Z,29.43
2023-01-29T07:12:09.368Z,37.67
2023-01-29T07:14:37.212Z,38.55
2023-01-29T07:17:04.691Z,37.72
2023-01-29T07:19:33.634Z,37.10
2023-01-29T07:22:02.275Z,36.43
2023-01-29T07:24:29.924Z,35.03
2023-01-29T07:26:57.473Z,32.53
2023-01-29T07:29:24.914Z,38.53
2023-01-29T07:31:52.511Z,32.78
2023-01-29T07:34:20.321Z,34.17
2023-01-29T07:36:49.262Z,25.35
2023-01-29T07:39:16.731Z,29.00
2023-01-29T07:41:44.180Z,24.70
2023-01-29T07:44:12.443Z,25.08
2023-01-29T07:46:39.946Z,29.03
2023-01-29T07:49:07.403Z,29.17
2023-01-29T07:51:34.827Z,30.13
2023-01-29T07:54:03.608Z,29.27
2023-01-29T07:56:31.057Z,30.67
2023-01-29T07:58:58.480Z,37.33
2023-01-29T08:01:25.978Z,34.22
2023-01-29T08:03:53.407Z,35.75
2023-01-29T08:06:21.021Z,36.42
2023-01-29T08:08:48.741Z,34.88
2023-01-29T08:11:17.568Z,34.10
2023-01-29T08:13:46.337Z,36.13
2023-01-29T08:16:13.816Z,36.35
2023-01-29T08:18:43.941Z,32.55
2023-01-29T08:21:13.056Z,31.08
2023-01-29T08:23:41.387Z,33.87
2023-01-29T08:26:09.247Z,34.33
2023-01-29T08:28:38.725Z,28.55
2023-01-29T08:31:13.420Z,30.75
2023-01-29T08:33:40.879Z,27.27
2023-01-29T08:36:09.621Z,32.90
2023-01-29T08:38:37.132Z,29.98
2023-01-29T08:41:04.852Z,33.55
2023-01-29T08:43:32.328Z,37.50
2023-01-29T08:46:01.218Z,30.95
2023-01-29T08:48:30.157Z,34.43
2023-01-29T08:50:59.280Z,30.25
2023-01-29T08:53:26.895Z,34.05
2023-01-29T08:55:54.803Z,36.58
2023-01-29T08:58:22.542Z,33.33
2023-01-29T09:00:50.327Z,25.63
2023-01-29T09:03:19.108Z,38.80
2023-01-29T09:05:46.886Z,28.63
2023-01-29T09:08:15.346Z,30.17
2023-01-29T09:10:42.798Z,35.20
2023-01-29T09:13:10.284Z,31.10
2023-01-29T09:15:37.725Z,33.95
2023-01-29T09:18:06.084Z,32.30
2023-01-29T09:20:35.222Z,39.05
2023-01-29T09:23:05.979Z,18.75
2023-01-29T09:25:33.477Z,21.43
2023-01-29T09:28:01.172Z,31.10
2023-01-29T09:30:28.683Z,36.97
2023-01-29T09:32:56.921Z,39.33
2023-01-29T09:35:24.587Z,35.97
2023-01-29T09:37:53.461Z,33.87
2023-01-29T09:40:27.483Z,28.38
2023-01-29T09:43:02.732Z,28.73
2023-01-29T09:45:31.708Z,33.53
2023-01-29T09:48:02.238Z,33.55
2023-01-29T09:50:33.654Z,32.57
2023-01-29T09:53:12.172Z,31.25
2023-01-29T09:55:46.538Z,26.42
2023-01-29T09:58:20.403Z,36.17
2023-01-29T10:00:58.270Z,31.40
2023-01-29T10:03:44.675Z,28.93
2023-01-29T10:06:31.560Z,27.50
2023-01-29T10:09:36.030Z,28.98
2023-01-29T10:12:17.325Z,24.55
2023-01-29T10:14:54.578Z,29.88
2023-01-29T10:17:38.036Z,25.20
2023-01-29T10:20:34.339Z,26.05
2023-01-29T10:23:27.456Z,22.98
2023-01-29T10:25:56.668Z,27.98
2023-01-29T10:28:29.079Z,30.95
2023-01-29T10:31:00.877Z,26.67
2023-01-29T10:33:49.246Z,27.05
2023-01-29T10:36:25.217Z,29.50
2023-01-29T10:38:53.356Z,35.17
2023-01-29T10:41:41.794Z,33.45
2023-01-29T10:44:20.820Z,30.63
2023-01-29T10:47:02.389Z,31.13
2023-01-29T10:49:46.606Z,34.75
2023-01-29T10:52:29.528Z,30.45
2023-01-29T10:55:09.963Z,31.85
2023-01-29T10:57:53.516Z,29.07
2023-01-29T11:00:24.658Z,37.90
2023-01-29T11:02:53.105Z,29.38
2023-01-29T11:05:26.527Z,27.70
2023-01-29T11:08:04.190Z,32.28
2023-01-29T11:10:37.854Z,26.77
2023-01-29T11:13:07.194Z,39.78
2023-01-29T11:15:35.586Z,34.45
2023-01-29T11:18:05.986Z,31.70
2023-01-29T11:20:34.843Z,29.35
2023-01-29T11:23:02.302Z,31.47
2023-01-29T11:25:32.478Z,21.00
2023-01-29T11:28:01.806Z,33.40
2023-01-29T11:30:34.613Z,32.20
2023-01-29T11:33:09.754Z,30.27
2023-01-29T11:35:37.933Z,30.70
2023-01-29T11:38:18.380Z,25.98
2023-01-29T11:40:46.429Z,28.45
2023-01-29T11:43:29.847Z,28.88
2023-01-29T11:46:01.472Z,30.58
2023-01-29T11:48:40.550Z,33.07
2023-01-29T11:51:11.235Z,27.98
2023-01-29T11:53:41.912Z,32.65
2023-01-29T11:56:23.295Z,27.35
2023-01-29T11:58:53.717Z,28.52
2023-01-29T12:01:32.927Z,28.57
2023-01-29T12:04:01.291Z,29.60
2023-01-29T12:06:36.560Z,31.90
2023-01-29T12:09:11.673Z,25.88
2023-01-29T12:11:39.120Z,31.13
2023-01-29T12:14:23.057Z,27.73
2023-01-29T12:16:57.103Z,29.02
2023-01-29T12:19:32.403Z,27.25
2023-01-29T12:22:05.327Z,27.27
2023-01-29T12:24:37.417Z,12.15
2023-01-29T12:27:13.030Z,8.63
2023-01-29T12:29:47.745Z,11.50
2023-01-29T12:32:30.667Z,11.10
2023-01-29T12:35:05.457Z,11.63
2023-01-29T12:37:42.024Z,10.45
2023-01-29T12:40:15.456Z,12.13
2023-01-29T12:42:48.206Z,16.58
2023-01-29T12:45:20.060Z,12.95
2023-01-29T12:47:52.733Z,12.00
2023-01-29T12:50:22.899Z,19.15
2023-01-29T12:52:54.718Z,21.97
2023-01-29T12:55:25.617Z,14.30
2023-01-29T12:57:57.530Z,13.20
2023-01-29T13:00:28.015Z,12.05
2023-01-29T13:03:02.535Z,15.07
2023-01-29T13:05:35.404Z,11.63
2023-01-29T13:08:08.271Z,14.80
2023-01-29T13:10:39.364Z,12.77
2023-01-29T13:13:16.793Z,17.05
2023-01-29T13:15:45.024Z,15.65
2023-01-29T13:18:37.446Z,16.63
2023-01-29T13:21:05.986Z,12.25
2023-01-29T13:23:37.958Z,17.08
2023-01-29T13:26:06.583Z,14.80
2023-01-29T13:28:34.286Z,12.02
2023-01-29T13:31:14.300Z,16.47
2023-01-29T13:33:44.628Z,11.70
2023-01-29T13:36:18.108Z,17.10
2023-01-29T13:38:45.953Z,18.08
2023-01-29T13:41:15.553Z,12.30
2023-01-29T13:43:49.314Z,10.77
2023-01-29T13:46:21.204Z,12.77
2023-01-29T13:48:54.422Z,14.95
2023-01-29T13:51:28.227Z,12.05
2023-01-29T13:54:01.240Z,10.73
2023-01-29T13:56:48.837Z,10.33
2023-01-29T13:59:23.684Z,8.85
2023-01-29T14:02:19.929Z,12.02
2023-01-29T14:04:48.754Z,11.30
2023-01-29T14:07:49.630Z,12.55
2023-01-29T14:10:20.145Z,12.77
2023-01-29T14:12:49.935Z,10.38
2023-01-29T14:15:22.109Z,13.40
2023-01-29T14:18:01.317Z,10.60
2023-01-29T14:20:50.573Z,12.07
2023-01-29T14:23:24.971Z,11.37
2023-01-29T14:25:52.749Z,11.70
2023-01-29T14:28:24.953Z,13.52
2023-01-29T14:30:53.336Z,10.80
2023-01-29T14:33:32.363Z,15.48
2023-01-29T14:36:06.310Z,15.93
2023-01-29T14:38:34.759Z,17.17
2023-01-29T14:41:06.727Z,12.02
2023-01-29T14:43:34.168Z,17.23
2023-01-29T14:46:34.802Z,14.43
2023-01-29T14:49:02.696Z,19.43
2023-01-29T14:51:38.522Z,13.60
2023-01-29T14:54:14.965Z,14.48
2023-01-29T14:56:47.828Z,16.35
2023-01-29T14:59:20.378Z,16.83
2023-01-29T15:01:52.939Z,20.17
2023-01-29T15:04:26.288Z,21.65
2023-01-29T15:07:00.371Z,17.45
2023-01-29T15:09:40.785Z,22.90
2023-01-29T15:12:19.447Z,25.55
2023-01-29T15:14:53.165Z,18.63
2023-01-29T15:17:27.089Z,23.77
2023-01-29T15:19:56.587Z,27.38
2023-01-29T15:22:26.332Z,32.25
2023-01-29T15:25:07.327Z,24.58
2023-01-29T15:27:35.424Z,21.73
2023-01-29T15:30:05.946Z,19.92
2023-01-29T15:32:36.953Z,18.65
2023-01-29T15:35:10.178Z,20.60
2023-01-29T15:37:39.418Z,21.48
2023-01-29T15:40:15.669Z,20.10
2023-01-29T15:42:46.507Z,21.77
2023-01-29T15:45:30.938Z,23.10
2023-01-29T15:48:04.320Z,21.52
2023-01-29T15:50:33.720Z,21.10
2023-01-29T15:53:07.587Z,16.47
2023-01-29T15:55:36.700Z,21.75
2023-01-29T15:58:05.097Z,22.63
2023-01-29T16:00:32.649Z,21.38
2023-01-29T16:03:01.509Z,15.52
2023-01-29T16:05:32.845Z,16.33
2023-01-29T16:08:02.516Z,20.35
2023-01-29T16:10:32.357Z,17.52
2023-01-29T16:13:00.550Z,18.30
2023-01-29T16:15:33.459Z,21.83
2023-01-29T16:18:03.450Z,27.60
2023-01-29T16:20:34.191Z,25.50
2023-01-29T16:23:03.472Z,27.02
2023-01-29T16:25:31.723Z,28.70
2023-01-29T16:27:59.589Z,29.38
2023-01-29T16:30:28.620Z,26.80
2023-01-29T16:33:03.407Z,21.25
2023-01-29T16:35:31.504Z,24.88
2023-01-29T16:38:03.703Z,30.58
2023-01-29T16:40:53.504Z,28.02
2023-01-29T16:43:52.306Z,28.80
2023-01-29T16:46:25.099Z,24.27
2023-01-29T16:48:53.577Z,24.52
2023-01-29T16:51:26.769Z,25.30
2023-01-29T16:53:58.107Z,32.03
2023-01-29T16:56:29.387Z,21.97
2023-01-29T16:58:57.150Z,32.25
2023-01-29T17:01:26.380Z,21.88
2023-01-29T17:04:00.559Z,27.45
2023-01-29T17:06:29.597Z,24.42
2023-01-29T17:08:57.446Z,26.90
2023-01-29T17:11:33.043Z,17.52
2023-01-29T17:14:01.732Z,26.20
2023-01-29T17:16:32.403Z,21.20
2023-01-29T17:19:00.807Z,16.95
2023-01-29T17:21:30.097Z,22.90
2023-01-29T17:23:57.794Z,22.90
2023-01-29T17:26:27.103Z,14.57
2023-01-29T17:28:55.301Z,21.67
2023-01-29T17:31:23.086Z,21.00
2023-01-29T17:33:50.978Z,23.47
2023-01-29T17:36:18.857Z,18.88
2023-01-29T17:38:47.018Z,27.77
2023-01-29T17:41:19.574Z,16.85
2023-01-29T17:43:48.514Z,23.20
2023-01-29T17:46:17.534Z,24.00
2023-01-29T17:48:49.007Z,24.25
2023-01-29T17:51:19.125Z,24.73
2023-01-29T17:53:47.595Z,26.67
2023-01-29T17:56:17.837Z,27.38
2023-01-29T17:58:45.530Z,28.53
2023-01-29T18:01:14.509Z,19.30
2023-01-29T18:03:42.142Z,27.02
2023-01-29T18:06:10.812Z,24.60
2023-01-29T18:08:40.734Z,23.33
2023-01-29T18:11:17.195Z,14.43
2023-01-29T18:13:44.757Z,30.15
2023-01-29T18:16:18.368Z,19.40
2023-01-29T18:18:46.240Z,22.90
2023-01-29T18:21:13.896Z,23.65
2023-01-29T18:23:43.091Z,27.80
2023-01-29T18:26:11.999Z,22.52
2023-01-29T18:28:40.443Z,24.63
2023-01-29T18:31:08.749Z,24.05
2023-01-29T18:33:37.784Z,25.63
2023-01-29T18:36:06.758Z,19.87
2023-01-29T18:38:34.325Z,23.67
2023-01-29T18:41:06.168Z,26.83
2023-01-29T18:43:33.808Z,27.58
2023-01-29T18:46:01.474Z,30.08
2023-01-29T18:48:29.288Z,22.73
2023-01-29T18:50:58.341Z,18.63
2023-01-29T18:53:26.157Z,27.67
2023-01-29T18:56:02.707Z,25.98
2023-01-29T18:58:35.734Z,27.85
2023-01-29T19:01:09.033Z,27.50
2023-01-29T19:03:37.610Z,31.25
2023-01-29T19:06:08.929Z,40.03
2023-01-29T19:08:36.929Z,24.80
2023-01-29T19:11:07.987Z,22.90
2023-01-29T19:13:36.415Z,19.30
2023-01-29T19:16:07.971Z,25.50
2023-01-29T19:18:35.569Z,19.20
2023-01-29T19:21:10.068Z,23.75
2023-01-29T19:23:40.290Z,22.23
2023-01-29T19:26:09.757Z,18.27
2023-01-29T19:28:39.671Z,23.63
2023-01-29T19:31:09.334Z,23.25
2023-01-29T19:33:37.304Z,17.40
2023-01-29T19:36:08.062Z,17.90
2023-01-29T19:38:40.005Z,11.93
2023-01-29T19:41:07.861Z,20.98
2023-01-29T19:43:39.135Z,12.98
2023-01-29T19:46:09.112Z,22.17
2023-01-29T19:48:36.969Z,14.02
2023-01-29T19:51:10.418Z,14.10
2023-01-29T19:53:42.218Z,14.00
2023-01-29T19:56:12.503Z,14.30
2023-01-29T19:58:40.427Z,14.35
2023-01-29T20:01:16.091Z,14.70
2023-01-29T20:03:46.320Z,10.63
2023-01-29T20:06:15.566Z,15.45
2023-01-29T20:08:46.627Z,17.35
2023-01-29T20:11:14.681Z,16.80
2023-01-29T20:13:42.303Z,20.85
2023-01-29T20:16:10.043Z,24.90
2023-01-29T20:18:37.652Z,27.38
2023-01-29T20:21:09.228Z,22.65
2023-01-29T20:23:38.927Z,22.75
2023-01-29T20:26:10.768Z,21.73
2023-01-29T20:28:40.779Z,20.03
2023-01-29T20:31:10.863Z,15.80
2023-01-29T20:33:39.654Z,17.83
2023-01-29T20:36:09.930Z,22.95
2023-01-29T20:38:37.882Z,21.75
2023-01-29T20:41:08.702Z,20.20
2023-01-29T20:43:36.924Z,14.25
2023-01-29T20:46:05.203Z,17.48
2023-01-29T20:48:33.574Z,21.00
2023-01-29T20:51:07.812Z,24.70
2023-01-29T20:53:35.481Z,21.73
2023-01-29T20:56:04.871Z,17.70
2023-01-29T20:58:34.784Z,14.48
2023-01-29T21:01:05.421Z,24.25
2023-01-29T21:03:33.034Z,18.25
2023-01-29T21:06:00.750Z,18.17
2023-01-29T21:08:28.586Z,15.98
2023-01-29T21:10:56.204Z,12.60
2023-01-29T21:13:23.889Z,18.10
2023-01-29T21:15:52.695Z,12.95
2023-01-29T21:18:20.274Z,20.57
2023-01-29T21:20:49.509Z,19.30
2023-01-29T21:23:16.966Z,22.60
2023-01-29T21:25:45.028Z,25.38
2023-01-29T21:28:15.051Z,16.38
2023-01-29T21:30:42.775Z,26.70
2023-01-29T21:33:11.696Z,18.42
2023-01-29T21:35:39.333Z,20.90
2023-01-29T21:38:06.760Z,19.88
2023-01-29T21:40:34.237Z,23.42
2023-01-29T21:43:15.274Z,14.73
2023-01-29T21:45:43.992Z,17.77
2023-01-29T21:48:13.031Z,25.85
2023-01-29T21:50:40.526Z,23.02
2023-01-29T21:53:08.001Z,16.30
2023-01-29T21:55:35.501Z,16.80
2023-01-29T21:58:04.140Z,17.23
2023-01-29T22:00:31.608Z,24.27
2023-01-29T22:02:59.071Z,21.98
2023-01-29T22:05:28.996Z,18.33
2023-01-29T22:07:56.614Z,19.57
2023-01-29T22:10:24.120Z,20.02
2023-01-29T22:12:51.658Z,19.85
2023-01-29T22:15:19.230Z,16.88
2023-01-29T22:17:46.687Z,18.90
2023-01-29T22:20:16.173Z,16.93
2023-01-29T22:22:45.270Z,14.07
2023-01-29T22:25:12.907Z,21.45
2023-01-29T22:27:40.500Z,18.45
2023-01-29T22:30:09.385Z,19.70
2023-01-29T22:32:36.899Z,16.87
2023-01-29T22:35:04.701Z,18.23
2023-01-29T22:37:32.157Z,19.45
2023-01-29T22:40:00.904Z,18.88
2023-01-29T22:42:28.713Z,15.07
2023-01-29T22:44:56.169Z,16.30
2023-01-29T22:47:23.646Z,15.35
2023-01-29T22:49:52.327Z,23.02
2023-01-29T22:52:21.898Z,16.75
2023-01-29T22:54:51.173Z,11.98
2023-01-29T22:57:20.154Z,12.37
2023-01-29T22:59:47.603Z,14.73
2023-01-29T23:02:15.120Z,17.70
2023-01-29T23:04:42.689Z,10.65
2023-01-29T23:07:11.186Z,13.70
2023-01-29T23:09:38.627Z,10.57
2023-01-29T23:12:06.816Z,11.90
2023-01-29T23:14:35.627Z,12.02
2023-01-29T23:17:03.104Z,12.18
2023-01-29T23:19:30.862Z,11.57
2023-01-29T23:21:58.312Z,13.90
2023-01-29T23:24:25.766Z,10.77
2023-01-29T23:27:11.107Z,8.90
2023-01-29T23:29:40.059Z,11.45
2023-01-29T23:32:08.043Z,9.75
2023-01-29T23:34:35.595Z,11.43
2023-01-29T23:37:03.091Z,12.60
2023-01-29T23:39:30.640Z,10.32
2023-01-29T23:41:58.167Z,7.93
2023-01-29T23:44:25.648Z,10.98
2023-01-29T23:46:54.728Z,8.77
2023-01-29T23:49:22.542Z,12.38
2023-01-29T23:51:50.356Z,14.98
2023-01-29T23:54:18.762Z,9.38
2023-01-29T23:56:46.768Z,10.98
2023-01-29T23:59:14.731Z,13.63
